Time;durP1;ratioP1;P1;durP2;ratioP2;P2;SDS_P1;SDS_P2;PMS_P1;PMS_P2;Temp;Humidity;BMP_temperature;BMP_pressure;BME280_temperature;BME280_humidity;BME280_pressure;Samples;Min_cycle;Max_cycle;Signal;HPM_P1;HPM_P2
2022/11/18 00:00:49;;;;;;;;;3.50;3.50;;;;;8.99;79.50;99399.03;5009421;28;10273;-64
2022/11/18 00:03:16;;;;;;;;;7.25;5.00;;;;;9.02;79.05;99409.34;5006745;28;10388;-63
2022/11/18 00:05:42;;;;;;;;;5.50;5.00;;;;;9.02;79.67;99408.53;5008561;28;10461;-64
2022/11/18 00:08:09;;;;;;;;;3.50;3.50;;;;;9.03;79.14;99405.63;5010011;28;10199;-64
2022/11/18 00:10:37;;;;;;;;;6.50;4.25;;;;;9.03;79.53;99408.31;5009585;28;10311;-64
2022/11/18 00:15:48;;;;;;;;;3.25;2.50;;;;;8.94;79.15;99417.66;5009420;28;10268;-63
2022/11/18 00:18:15;;;;;;;;;2.50;2.50;;;;;8.94;79.29;99415.00;5007802;28;10066;-64
2022/11/18 00:20:41;;;;;;;;;4.00;4.00;;;;;8.84;79.37;99415.50;5009491;28;10243;-64
2022/11/18 00:23:08;;;;;;;;;2.00;2.00;;;;;8.88;79.88;99422.06;5020798;28;10291;-64
2022/11/18 00:25:34;;;;;;;;;5.75;4.00;;;;;8.91;79.39;99424.31;5009792;28;10157;-64
2022/11/18 00:28:00;;;;;;;;;3.25;3.25;;;;;8.96;79.17;99422.84;5009584;28;10348;-63
2022/11/18 00:30:27;;;;;;;;;6.00;5.00;;;;;8.95;79.42;99442.66;5009790;28;10057;-64
2022/11/18 00:32:53;;;;;;;;;5.50;4.00;;;;;8.90;79.46;99448.66;5008552;28;10460;-64
2022/11/18 00:35:20;;;;;;;;;7.75;4.75;;;;;8.87;79.31;99444.56;5009738;28;10203;-64
2022/11/18 00:37:46;;;;;;;;;5.00;5.00;;;;;8.85;79.52;99449.31;5009770;28;10277;-65
2022/11/18 00:40:12;;;;;;;;;7.00;6.00;;;;;8.80;79.63;99448.34;5008219;28;10269;-65
2022/11/18 00:42:51;;;;;;;;;5.00;4.50;;;;;8.83;79.68;99451.41;5007997;28;10331;-63
2022/11/18 00:45:19;;;;;;;;;4.50;4.50;;;;;8.86;79.53;99452.81;5009611;28;10273;-64
2022/11/18 00:47:45;;;;;;;;;5.25;5.25;;;;;8.88;79.79;99462.31;5009157;28;10213;-64
2022/11/18 00:50:12;;;;;;;;;0.75;0.75;;;;;8.83;79.17;99459.47;5005482;28;10340;-63
2022/11/18 00:52:39;;;;;;;;;6.00;5.25;;;;;8.88;79.67;99459.63;5009772;28;10230;-64
2022/11/18 00:55:06;;;;;;;;;5.50;5.00;;;;;8.88;79.38;99465.00;5008702;28;10412;-64
2022/11/18 00:57:32;;;;;;;;;4.25;4.25;;;;;8.89;79.19;99469.31;5006560;28;10279;-64
2022/11/18 00:59:59;;;;;;;;;3.25;2.00;;;;;8.89;79.30;99463.94;5009120;28;10403;-63
2022/11/18 01:02:25;;;;;;;;;4.50;4.50;;;;;8.93;79.27;99467.03;5009094;28;10152;-64
2022/11/18 01:04:52;;;;;;;;;5.00;4.00;;;;;8.94;79.24;99473.22;5010205;28;10215;-64
2022/11/18 01:07:19;;;;;;;;;3.50;3.50;;;;;8.97;79.32;99475.47;5007322;28;10360;-64
2022/11/18 01:09:46;;;;;;;;;3.50;3.50;;;;;8.91;78.98;99472.63;5015951;28;10199;-63
2022/11/18 01:14:58;;;;;;;;;6.00;6.00;;;;;8.86;79.28;99485.03;5009019;28;10245;-64
2022/11/18 01:17:24;;;;;;;;;6.75;4.50;;;;;8.86;79.11;99487.72;5011643;28;10327;-65
2022/11/18 01:19:51;;;;;;;;;8.25;3.00;;;;;8.78;79.45;99483.41;5027030;28;10311;-65
2022/11/18 01:22:17;;;;;;;;;3.00;1.00;;;;;8.79;79.49;99495.81;5013268;28;10270;-65
2022/11/18 01:24:43;;;;;;;;;4.25;4.25;;;;;8.77;80.12;99497.06;5014086;28;10099;-65
2022/11/18 01:27:10;;;;;;;;;4.75;4.00;;;;;8.78;79.42;99504.06;5011313;28;10822;-64
2022/11/18 01:29:36;;;;;;;;;3.25;3.25;;;;;8.80;79.83;99497.47;5019580;28;10154;-64
2022/11/18 01:32:03;;;;;;;;;5.00;5.00;;;;;8.76;79.97;99504.28;5010850;28;10869;-64
2022/11/18 01:34:49;;;;;;;;;4.00;4.00;;;;;8.78;79.63;99506.75;5006789;28;10326;-64
2022/11/18 01:37:16;;;;;;;;;6.00;4.75;;;;;8.76;79.56;99509.66;5012291;28;10257;-64
2022/11/18 01:39:42;;;;;;;;;5.00;4.25;;;;;8.78;80.14;99514.78;5009466;28;10236;-63
2022/11/18 01:42:16;;;;;;;;;5.50;5.00;;;;;8.68;80.13;99504.53;5012492;28;10035;-63
2022/11/18 01:44:57;;;;;;;;;5.50;4.75;;;;;8.68;79.91;99504.53;5011800;28;10174;-64
2022/11/18 01:47:27;;;;;;;;;4.50;4.25;;;;;8.70;80.51;99518.56;5010219;28;10165;-66
2022/11/18 01:49:54;;;;;;;;;4.00;4.00;;;;;8.70;80.11;99521.22;5010590;28;10211;-63
2022/11/18 01:52:22;;;;;;;;;4.00;4.00;;;;;8.73;80.20;99528.03;5011098;28;10231;-64
2022/11/18 01:54:54;;;;;;;;;5.75;4.50;;;;;8.74;80.02;99525.13;5008700;28;10235;-64
2022/11/18 01:57:22;;;;;;;;;7.25;4.25;;;;;8.74;79.96;99530.50;5011631;28;10981;-65
2022/11/18 01:59:53;;;;;;;;;2.50;2.50;;;;;8.76;80.45;99524.94;5010478;28;10180;-64
2022/11/18 02:02:21;;;;;;;;;2.50;2.50;;;;;8.73;80.14;99534.22;5012638;28;10294;-64
2022/11/18 02:04:50;;;;;;;;;3.75;3.75;;;;;8.72;80.16;99540.63;5011506;28;10251;-64
2022/11/18 02:07:18;;;;;;;;;2.50;2.50;;;;;8.71;80.61;99538.16;5012166;28;11157;-64
2022/11/18 02:09:45;;;;;;;;;6.50;6.50;;;;;8.72;80.55;99547.88;5011998;28;11006;-64
2022/11/18 02:12:12;;;;;;;;;8.50;6.00;;;;;8.68;80.48;99549.34;5012244;28;10510;-64
2022/11/18 02:14:44;;;;;;;;;4.00;4.00;;;;;8.72;80.81;99553.22;5011718;28;10459;-65
2022/11/18 02:17:51;;;;;;;;;5.00;5.00;;;;;8.64;80.28;99555.13;5011795;28;10334;-65
2022/11/18 02:20:34;;;;;;;;;5.75;5.50;;;;;8.59;80.61;99562.16;5004495;28;11040;-64
2022/11/18 02:23:23;;;;;;;;;3.25;3.25;;;;;8.64;81.40;99552.44;5012281;28;10393;-65
2022/11/18 02:26:16;;;;;;;;;5.00;5.00;;;;;8.64;80.45;99556.97;5012069;28;10268;-64
2022/11/18 02:29:14;;;;;;;;;6.25;4.75;;;;;8.70;80.90;99556.09;5011026;28;10334;-64
2022/11/18 02:31:52;;;;;;;;;4.00;4.00;;;;;8.69;80.48;99559.84;5010631;28;10419;-65
2022/11/18 02:34:36;;;;;;;;;5.75;5.75;;;;;8.63;80.48;99566.88;5010796;28;11172;-65
2022/11/18 02:37:12;;;;;;;;;4.75;4.75;;;;;8.63;81.12;99574.13;5006742;28;10340;-64
2022/11/18 02:39:46;;;;;;;;;4.50;4.50;;;;;8.64;80.54;99565.84;5011313;28;10456;-65
2022/11/18 02:42:14;;;;;;;;;5.00;2.50;;;;;8.66;80.83;99576.34;5011833;28;10343;-64
2022/11/18 02:44:46;;;;;;;;;6.00;3.50;;;;;8.65;81.10;99569.34;5010778;28;10989;-64
2022/11/18 02:47:16;;;;;;;;;6.00;5.00;;;;;8.67;80.51;99575.34;5011499;28;10462;-64
2022/11/18 02:49:48;;;;;;;;;7.25;6.00;;;;;8.69;81.06;99583.16;5008952;28;10470;-64
2022/11/18 02:52:17;;;;;;;;;6.00;6.00;;;;;8.71;80.91;99587.28;5011573;28;11051;-64
2022/11/18 02:54:47;;;;;;;;;4.00;4.00;;;;;8.72;80.64;99583.56;5010184;28;10409;-64
2022/11/18 02:57:14;;;;;;;;;7.50;4.00;;;;;8.71;80.64;99586.44;5011270;28;11118;-64
2022/11/18 02:59:41;;;;;;;;;8.00;5.75;;;;;8.69;80.42;99586.66;5010780;28;10319;-64
2022/11/18 03:02:13;;;;;;;;;8.00;6.50;;;;;8.67;80.48;99591.44;5010486;28;10502;-64
2022/11/18 03:04:40;;;;;;;;;7.00;5.00;;;;;8.69;80.66;99589.34;5010654;28;10342;-64
2022/11/18 03:07:10;;;;;;;;;7.00;7.00;;;;;8.68;80.64;99593.06;5011426;28;10309;-65
2022/11/18 03:09:41;;;;;;;;;8.25;5.25;;;;;8.67;80.36;99602.16;5010956;28;10491;-63
2022/11/18 03:12:36;;;;;;;;;8.50;7.00;;;;;8.66;81.09;99597.81;5001972;28;10210;-64
2022/11/18 03:15:28;;;;;;;;;7.50;7.50;;;;;8.65;80.64;99605.03;5008849;28;10341;-65
2022/11/18 03:18:22;;;;;;;;;6.00;5.25;;;;;8.66;80.64;99604.00;5007930;28;10513;-64
2022/11/18 03:21:10;;;;;;;;;5.50;5.50;;;;;8.64;81.05;99608.75;5008142;28;10492;-65
2022/11/18 03:23:42;;;;;;;;;7.75;7.75;;;;;8.62;80.87;99607.31;5011268;28;10284;-64
2022/11/18 03:26:17;;;;;;;;;6.25;6.00;;;;;8.63;80.75;99614.34;5010736;28;10481;-64
2022/11/18 03:28:57;;;;;;;;;6.50;6.50;;;;;8.65;80.68;99614.94;5009584;28;10340;-64
2022/11/18 03:31:34;;;;;;;;;7.75;7.75;;;;;8.63;81.18;99623.22;5007983;28;10305;-63
2022/11/18 03:34:13;;;;;;;;;11.50;7.50;;;;;8.59;80.57;99627.34;5012053;28;10409;-64
2022/11/18 03:36:45;;;;;;;;;7.00;5.00;;;;;8.64;81.23;99635.59;5010470;28;10616;-64
2022/11/18 03:39:19;;;;;;;;;7.75;7.75;;;;;8.62;81.33;99637.66;5010380;28;10433;-64
2022/11/18 03:41:53;;;;;;;;;9.75;8.50;;;;;8.64;81.16;99637.44;5021669;28;11009;-63
2022/11/18 03:44:26;;;;;;;;;6.00;6.00;;;;;8.61;81.16;99637.88;5009835;28;10979;-62
2022/11/18 03:47:01;;;;;;;;;8.75;8.75;;;;;8.59;81.14;99634.59;5009142;28;10415;-64
2022/11/18 03:49:33;;;;;;;;;7.25;7.25;;;;;8.61;80.88;99644.06;5010208;28;10315;-64
2022/11/18 03:52:09;;;;;;;;;8.25;6.25;;;;;8.62;81.58;99637.66;5010431;28;10288;-65
2022/11/18 03:54:39;;;;;;;;;12.50;9.50;;;;;8.64;81.20;99640.13;5010256;28;10158;-65
2022/11/18 03:57:12;;;;;;;;;9.25;8.50;;;;;8.57;81.03;99642.00;5009488;28;11219;-64
2022/11/18 03:59:44;;;;;;;;;9.25;9.00;;;;;8.52;81.04;99642.63;5005411;28;10418;-64
2022/11/18 04:02:19;;;;;;;;;12.00;10.75;;;;;8.47;81.39;99649.66;5008666;28;10489;-65
2022/11/18 04:04:48;;;;;;;;;7.00;5.25;;;;;8.49;81.39;99650.28;5010360;28;10573;-64
2022/11/18 04:07:29;;;;;;;;;6.00;6.00;;;;;8.52;81.25;99657.91;5010000;28;10419;-65
2022/11/18 04:10:17;;;;;;;;;4.00;4.00;;;;;8.55;81.81;99652.13;4992612;28;10424;-64
2022/11/18 04:12:52;;;;;;;;;12.00;11.00;;;;;8.46;81.41;99654.19;5009543;28;10418;-64
2022/11/18 04:15:19;;;;;;;;;7.00;7.00;;;;;8.51;81.43;99659.78;5009383;28;10527;-63
2022/11/18 04:17:45;;;;;;;;;6.50;6.50;;;;;8.50;81.43;99662.66;5014505;28;10479;-64
2022/11/18 04:20:18;;;;;;;;;8.25;7.00;;;;;8.47;81.25;99663.06;5009492;28;10484;-64
2022/11/18 04:22:45;;;;;;;;;9.00;7.25;;;;;8.46;81.87;99672.97;5009809;28;10535;-64
2022/11/18 04:25:12;;;;;;;;;11.75;8.00;;;;;8.44;81.67;99676.91;4988087;28;10503;-63
2022/11/18 04:27:38;;;;;;;;;10.25;9.50;;;;;8.42;81.64;99685.97;5008051;28;10419;-62
2022/11/18 04:30:06;;;;;;;;;6.50;5.25;;;;;8.41;81.58;99683.50;4991593;28;10391;-64
2022/11/18 04:32:32;;;;;;;;;8.75;6.75;;;;;8.42;82.19;99688.63;5008238;28;11163;-63
2022/11/18 04:34:59;;;;;;;;;6.50;6.00;;;;;8.42;81.78;99685.16;4991622;28;10366;-63
2022/11/18 04:37:25;;;;;;;;;12.75;9.00;;;;;8.40;81.46;99689.91;5009820;28;10593;-63
2022/11/18 04:39:52;;;;;;;;;10.00;8.25;;;;;8.39;81.86;99690.94;4992037;28;10534;-63
2022/11/18 04:42:18;;;;;;;;;14.00;10.00;;;;;8.38;82.35;99691.94;5008624;28;10539;-63
2022/11/18 04:44:45;;;;;;;;;9.00;9.00;;;;;8.44;82.00;99701.03;5007232;28;10552;-63
2022/11/18 04:47:11;;;;;;;;;6.00;6.00;;;;;8.45;81.87;99705.38;5009792;28;11222;-63
2022/11/18 04:49:38;;;;;;;;;10.50;10.50;;;;;8.43;81.45;99713.63;5009572;28;10614;-64
2022/11/18 04:52:05;;;;;;;;;10.75;9.00;;;;;8.44;81.58;99719.81;5013084;28;11386;-63
2022/11/18 04:54:31;;;;;;;;;6.75;6.50;;;;;8.41;81.39;99721.88;4996173;28;10634;-64
2022/11/18 04:56:58;;;;;;;;;10.75;10.00;;;;;8.44;82.08;99726.00;5012788;28;10688;-64
2022/11/18 04:59:27;;;;;;;;;9.75;9.75;;;;;8.39;81.89;99729.31;5013026;28;11465;-64
2022/11/18 05:01:54;;;;;;;;;9.75;8.00;;;;;8.42;82.11;99728.88;5013031;28;10498;-64
2022/11/18 05:04:27;;;;;;;;;8.50;6.00;;;;;8.47;81.87;99727.41;5013008;28;10664;-64
2022/11/18 05:06:53;;;;;;;;;15.25;9.50;;;;;8.44;81.46;99726.00;4998567;28;10497;-63
2022/11/18 05:09:20;;;;;;;;;7.00;5.50;;;;;8.44;81.79;99727.84;5011866;28;11335;-64
2022/11/18 05:14:37;;;;;;;;;9.00;8.00;;;;;8.43;81.22;99740.44;5013392;28;10469;-62
2022/11/18 05:17:06;;;;;;;;;13.25;11.00;;;;;8.40;81.65;99744.34;5014938;28;10432;-64
2022/11/18 05:19:33;;;;;;;;;14.25;10.50;;;;;8.39;81.86;99744.56;4998473;28;10532;-64
2022/11/18 05:21:59;;;;;;;;;8.50;8.50;;;;;8.38;81.48;99748.25;5012803;28;10713;-64
2022/11/18 05:24:26;;;;;;;;;10.75;9.25;;;;;8.35;82.38;99749.50;5016070;28;10426;-66
2022/11/18 05:26:53;;;;;;;;;4.75;4.75;;;;;8.40;82.70;99752.41;5013232;28;11114;-65
2022/11/18 05:29:21;;;;;;;;;7.75;6.50;;;;;8.40;82.24;99756.94;5012083;28;10432;-67
2022/11/18 05:31:48;;;;;;;;;10.50;9.25;;;;;8.41;81.87;99756.72;5009831;28;10386;-64
2022/11/18 05:34:14;;;;;;;;;8.25;8.00;;;;;8.45;81.94;99756.31;5013171;28;10559;-64
2022/11/18 05:36:41;;;;;;;;;8.25;7.50;;;;;8.48;82.30;99761.28;5011577;28;10410;-65
2022/11/18 05:39:08;;;;;;;;;10.75;8.25;;;;;8.44;81.64;99766.22;5011628;28;10609;-64
2022/11/18 05:44:19;;;;;;;;;8.75;8.25;;;;;8.38;82.44;99770.53;5011603;28;11407;-64
2022/11/18 05:46:46;;;;;;;;;8.50;8.00;;;;;8.42;82.44;99768.28;5012429;28;10431;-64
2022/11/18 05:49:12;;;;;;;;;12.75;10.00;;;;;8.44;82.25;99776.13;5013307;28;10461;-65
2022/11/18 05:51:38;;;;;;;;;10.50;9.00;;;;;8.37;82.58;99776.94;5011971;28;10768;-65
2022/11/18 05:54:07;;;;;;;;;8.25;8.25;;;;;8.38;81.93;99773.22;5016194;28;10553;-65
2022/11/18 05:56:39;;;;;;;;;8.50;8.50;;;;;8.43;82.43;99778.00;5054524;23;10441;-65
2022/11/18 05:59:07;;;;;;;;;9.50;6.75;;;;;8.47;81.91;99779.22;5046189;28;11093;-65
2022/11/18 06:01:39;;;;;;;;;6.00;5.00;;;;;8.50;81.88;99772.59;5045599;28;10157;-65
2022/11/18 06:04:17;;;;;;;;;8.50;8.00;;;;;8.53;81.77;99772.19;5042237;28;11147;-64
2022/11/18 06:06:46;;;;;;;;;9.50;8.25;;;;;8.54;82.03;99771.97;5031452;28;10379;-64
2022/11/18 06:09:17;;;;;;;;;14.00;11.75;;;;;8.47;82.34;99783.75;5036011;28;10355;-65
2022/11/18 06:11:53;;;;;;;;;6.50;5.00;;;;;8.53;82.14;99785.59;5023564;28;10368;-64
2022/11/18 06:14:45;;;;;;;;;9.75;7.75;;;;;8.54;82.08;99796.13;5030735;28;10156;-65
2022/11/18 06:17:17;;;;;;;;;9.00;9.00;;;;;8.51;82.20;99795.75;5033044;28;11330;-64
2022/11/18 06:19:43;;;;;;;;;8.00;6.00;;;;;8.51;81.47;99793.88;5032207;28;10433;-65
2022/11/18 06:22:10;;;;;;;;;9.00;8.25;;;;;8.50;82.13;99802.94;5031246;28;10467;-65
2022/11/18 06:24:37;;;;;;;;;9.00;7.00;;;;;8.48;81.90;99804.19;5034020;28;10576;-66
2022/11/18 06:27:04;;;;;;;;;5.00;5.00;;;;;8.52;82.15;99811.63;5032341;28;11136;-65
2022/11/18 06:29:30;;;;;;;;;11.75;10.75;;;;;8.52;81.69;99808.94;5035336;28;10619;-66
2022/11/18 06:31:57;;;;;;;;;8.00;7.00;;;;;8.53;81.99;99812.44;5032025;28;10537;-65
2022/11/18 06:34:23;;;;;;;;;10.25;9.00;;;;;8.47;82.46;99822.13;5039543;28;10464;-64
2022/11/18 06:36:50;;;;;;;;;9.00;8.25;;;;;8.43;82.30;99823.59;5022801;28;10655;-67
2022/11/18 06:39:16;;;;;;;;;8.00;8.00;;;;;8.50;82.17;99828.94;5032186;28;10454;-66
2022/11/18 06:41:43;;;;;;;;;8.00;7.50;;;;;8.55;82.08;99829.97;5026849;28;10389;-65
2022/11/18 06:44:13;;;;;;;;;11.00;10.00;;;;;8.53;82.17;99833.88;5023159;28;10510;-65
2022/11/18 06:46:54;;;;;;;;;12.75;10.25;;;;;8.51;82.44;99836.78;5034791;28;10454;-66
2022/11/18 06:49:22;;;;;;;;;9.50;7.50;;;;;8.54;81.89;99846.25;5032450;28;10516;-69
2022/11/18 06:51:48;;;;;;;;;6.25;6.25;;;;;8.55;81.62;99846.06;5043932;28;10470;-65
2022/11/18 06:54:14;;;;;;;;;11.75;8.75;;;;;8.53;81.59;99861.53;5046107;28;10420;-65
2022/11/18 06:56:41;;;;;;;;;7.50;7.50;;;;;8.48;82.39;99860.50;5042141;28;10317;-65
2022/11/18 06:59:07;;;;;;;;;12.25;9.75;;;;;8.50;82.38;99858.44;5035947;28;10577;-65
2022/11/18 07:01:36;;;;;;;;;9.00;9.00;;;;;8.50;82.37;99863.78;5023360;28;10471;-65
2022/11/18 07:04:03;;;;;;;;;9.00;7.75;;;;;8.52;82.36;99870.63;5029920;28;10332;-64
2022/11/18 07:06:33;;;;;;;;;9.75;9.75;;;;;8.54;82.12;99873.91;5030676;28;10385;-66
2022/11/18 07:09:01;;;;;;;;;6.00;4.75;;;;;8.57;82.04;99875.38;5021198;28;10389;-64
2022/11/18 07:11:28;;;;;;;;;10.50;8.25;;;;;8.54;82.03;99873.91;5028581;28;10147;-66
2022/11/18 07:13:55;;;;;;;;;8.00;6.25;;;;;8.52;82.21;99884.03;5030586;28;10446;-65
2022/11/18 07:16:23;;;;;;;;;9.25;8.50;;;;;8.55;81.95;99886.31;5030823;28;10553;-66
2022/11/18 07:18:51;;;;;;;;;6.50;6.50;;;;;8.53;81.60;99892.91;5023762;28;10396;-66
2022/11/18 07:21:20;;;;;;;;;7.00;7.00;;;;;8.54;81.79;99895.38;5046446;28;10281;-67
2022/11/18 07:23:47;;;;;;;;;6.00;6.00;;;;;8.53;81.82;99904.44;5050562;28;10353;-66
2022/11/18 07:26:15;;;;;;;;;7.50;5.00;;;;;8.55;82.03;99909.63;5038750;28;10364;-67
2022/11/18 07:28:42;;;;;;;;;7.50;6.50;;;;;8.56;81.67;99913.97;5028054;28;10157;-66
2022/11/18 07:31:14;;;;;;;;;9.00;5.25;;;;;8.56;81.63;99913.97;5035983;28;10252;-65
2022/11/18 07:33:42;;;;;;;;;12.25;9.00;;;;;8.47;81.94;99916.00;5030461;28;10384;-66
2022/11/18 07:36:12;;;;;;;;;8.50;8.00;;;;;8.50;81.49;99922.81;5036968;28;10506;-66
2022/11/18 07:38:38;;;;;;;;;9.50;7.00;;;;;8.51;81.80;99922.63;5030538;28;10286;-67
2022/11/18 07:41:23;;;;;;;;;7.50;7.50;;;;;8.54;81.62;99932.09;5026823;28;11125;-67
2022/11/18 07:43:51;;;;;;;;;9.00;9.00;;;;;8.56;81.47;99930.06;5018890;28;10391;-67
2022/11/18 07:46:31;;;;;;;;;9.00;7.50;;;;;8.53;82.12;99936.63;5035522;28;10505;-67
2022/11/18 07:48:59;;;;;;;;;9.25;9.00;;;;;8.51;81.83;99938.72;5026602;28;10460;-66
2022/11/18 07:51:33;;;;;;;;;11.50;10.25;;;;;8.41;82.04;99944.44;5028017;28;10391;-66
2022/11/18 07:54:00;;;;;;;;;12.00;5.25;;;;;8.43;82.35;99952.31;5027207;28;11347;-66
2022/11/18 07:56:27;;;;;;;;;9.50;8.25;;;;;8.49;82.27;99947.97;5022150;28;10402;-68
2022/11/18 07:58:55;;;;;;;;;10.00;9.00;;;;;8.56;81.84;99956.88;5021957;28;11244;-67
2022/11/18 08:01:24;;;;;;;;;12.25;10.00;;;;;8.57;82.04;99961.19;5027446;28;10281;-67
2022/11/18 08:03:51;;;;;;;;;7.25;6.50;;;;;8.60;81.47;99971.53;5022839;28;10432;-66
2022/11/18 08:06:18;;;;;;;;;9.00;7.00;;;;;8.57;81.38;99958.53;5023265;28;10246;-67
2022/11/18 08:08:45;;;;;;;;;8.00;5.50;;;;;8.63;81.02;99971.13;5016248;28;11118;-66
2022/11/18 08:11:17;;;;;;;;;4.50;4.50;;;;;8.64;80.85;99967.41;5024488;28;11149;-65
2022/11/18 08:13:48;;;;;;;;;8.00;7.75;;;;;8.62;81.21;99975.66;5027156;28;11210;-68
2022/11/18 08:16:21;;;;;;;;;9.00;7.50;;;;;8.54;81.08;99983.06;5026530;28;10322;-68
2022/11/18 08:18:48;;;;;;;;;4.00;4.00;;;;;8.56;81.50;99976.47;5029198;28;10277;-68
2022/11/18 08:21:17;;;;;;;;;10.00;6.25;;;;;8.61;81.79;99981.22;5028757;28;10362;-68
2022/11/18 08:23:51;;;;;;;;;8.75;6.50;;;;;8.47;81.84;99985.75;5026723;28;10283;-68
2022/11/18 08:26:18;;;;;;;;;6.00;5.25;;;;;8.55;82.19;99990.09;5026989;28;10428;-67
2022/11/18 08:28:45;;;;;;;;;6.00;6.00;;;;;8.58;81.41;99989.69;5023863;28;10266;-67
2022/11/18 08:31:15;;;;;;;;;7.00;7.00;;;;;8.63;81.21;99992.59;5030236;28;11051;-67
2022/11/18 08:33:41;;;;;;;;;10.00;8.00;;;;;8.62;81.32;99998.97;5029972;28;10288;-68
2022/11/18 08:36:17;;;;;;;;;4.00;4.00;;;;;8.69;81.17;100001.69;5032191;28;10493;-68
2022/11/18 08:38:44;;;;;;;;;5.50;4.00;;;;;8.71;80.82;100000.47;5029155;28;10847;-68
2022/11/18 08:41:18;;;;;;;;;5.50;5.50;;;;;8.68;81.28;99998.19;5037608;28;10160;-67
2022/11/18 08:43:44;;;;;;;;;5.50;5.50;;;;;8.65;81.66;100007.44;5035397;28;10879;-65
2022/11/18 08:46:11;;;;;;;;;7.00;5.75;;;;;8.69;81.58;100005.19;5046387;28;10271;-66
2022/11/18 08:48:37;;;;;;;;;5.50;5.50;;;;;8.72;80.82;100004.78;5051824;28;10137;-66
2022/11/18 08:51:04;;;;;;;;;6.75;5.00;;;;;8.75;81.11;100008.91;5029827;28;10233;-66
2022/11/18 08:53:31;;;;;;;;;4.50;4.50;;;;;8.74;81.42;100001.91;5023316;28;10292;-66
2022/11/18 08:55:59;;;;;;;;;10.25;10.25;;;;;8.73;81.08;100013.66;5026291;28;10238;-67
2022/11/18 08:58:26;;;;;;;;;10.25;8.25;;;;;8.68;81.48;100011.59;5031042;28;10297;-67
2022/11/18 09:00:53;;;;;;;;;8.00;6.25;;;;;8.69;81.26;100012.41;5029781;28;10450;-67
2022/11/18 09:03:20;;;;;;;;;10.75;5.00;;;;;8.75;80.63;100017.81;5029588;28;10454;-65
2022/11/18 09:05:46;;;;;;;;;7.00;5.50;;;;;8.79;81.13;100026.25;5031479;28;10488;-67
2022/11/18 09:08:14;;;;;;;;;9.00;5.00;;;;;8.85;80.96;100023.59;5033269;28;10449;-66
2022/11/18 09:10:40;;;;;;;;;8.50;7.50;;;;;8.82;80.63;100039.28;5025831;28;10267;-66
2022/11/18 09:13:07;;;;;;;;;8.00;8.00;;;;;8.78;80.71;100041.53;5030413;28;10409;-67
2022/11/18 09:15:57;;;;;;;;;7.25;7.25;;;;;8.82;80.64;100047.31;5029483;28;10318;-66
2022/11/18 09:18:24;;;;;;;;;6.00;6.00;;;;;8.80;80.22;100050.22;5020107;28;10292;-66
2022/11/18 09:20:59;;;;;;;;;4.00;3.00;;;;;8.81;80.81;100051.03;5021179;28;10499;-67
2022/11/18 09:23:26;;;;;;;;;8.25;7.50;;;;;8.86;80.60;100056.63;5030407;28;10084;-66
2022/11/18 09:26:07;;;;;;;;;7.25;6.50;;;;;8.85;80.27;100063.03;5041577;28;10162;-67
2022/11/18 09:28:33;;;;;;;;;7.75;6.75;;;;;8.83;80.66;100054.34;5024876;28;10338;-67
2022/11/18 09:31:09;;;;;;;;;6.75;6.00;;;;;8.88;81.10;100060.78;5013890;28;10438;-66
2022/11/18 09:33:36;;;;;;;;;9.75;8.00;;;;;8.88;81.05;100060.78;5031169;28;10395;-66
2022/11/18 09:36:17;;;;;;;;;8.50;7.00;;;;;8.96;80.60;100067.00;5035059;28;10373;-67
2022/11/18 09:38:44;;;;;;;;;11.50;11.50;;;;;8.90;80.66;100063.25;5025470;28;11074;-67
2022/11/18 09:41:43;;;;;;;;;15.50;13.50;;;;;8.85;81.30;100066.53;5032820;28;10483;-66
2022/11/18 09:44:21;;;;;;;;;9.50;8.75;;;;;8.91;80.63;100078.31;5018649;28;10394;-66
2022/11/18 09:47:26;;;;;;;;;12.00;12.00;;;;;8.85;80.83;100079.97;5030426;28;10393;-67
2022/11/18 09:49:58;;;;;;;;;11.00;11.00;;;;;8.80;80.69;100079.75;5030519;28;10458;-67
2022/11/18 09:52:52;;;;;;;;;15.25;13.25;;;;;8.83;80.77;100090.09;5028081;28;10425;-67
2022/11/18 09:55:19;;;;;;;;;11.75;9.75;;;;;8.88;80.57;100094.84;5029439;28;10378;-67
2022/11/18 09:57:49;;;;;;;;;12.00;10.75;;;;;8.97;80.82;100098.16;5020983;28;10256;-66
2022/11/18 10:00:18;;;;;;;;;12.00;12.00;;;;;8.99;81.00;100101.47;5020192;28;10428;-67
2022/11/18 10:02:55;;;;;;;;;16.50;11.00;;;;;9.01;80.64;100102.94;5034970;28;10576;-67
2022/11/18 10:05:25;;;;;;;;;14.00;12.75;;;;;9.00;80.38;100109.34;5031886;28;11187;-66
2022/11/18 10:08:20;;;;;;;;;8.75;7.25;;;;;9.07;80.45;100114.69;5031881;28;10528;-67
2022/11/18 10:11:09;;;;;;;;;10.25;8.75;;;;;8.89;80.61;100118.78;5033621;28;10430;-66
2022/11/18 10:13:53;;;;;;;;;11.50;9.00;;;;;8.86;80.13;100124.53;5032386;28;10309;-66
2022/11/18 10:16:42;;;;;;;;;8.50;8.50;;;;;8.91;80.14;100116.75;5040523;28;10462;-66
2022/11/18 10:19:50;;;;;;;;;9.50;7.50;;;;;8.98;80.56;100126.66;5031294;28;10337;-67
2022/11/18 10:22:22;;;;;;;;;7.50;7.50;;;;;9.00;80.14;100128.13;5011373;28;10289;-67
2022/11/18 10:24:55;;;;;;;;;12.25;10.25;;;;;9.02;79.90;100130.59;5024916;28;10319;-67
2022/11/18 10:27:32;;;;;;;;;5.75;5.75;;;;;9.04;80.02;100136.59;5029585;28;10209;-66
2022/11/18 10:30:00;;;;;;;;;9.75;9.50;;;;;9.06;79.99;100139.91;5038775;28;10304;-67
2022/11/18 10:32:26;;;;;;;;;13.00;11.75;;;;;9.04;80.06;100142.78;5026278;28;10268;-66
2022/11/18 10:34:56;;;;;;;;;6.25;6.25;;;;;9.08;79.81;100137.84;5026924;28;10309;-66
2022/11/18 10:37:32;;;;;;;;;9.50;8.00;;;;;9.12;80.02;100139.94;5037283;28;10306;-66
2022/11/18 10:40:27;;;;;;;;;8.75;7.00;;;;;9.16;80.15;100143.03;5023312;28;10481;-67
2022/11/18 10:42:54;;;;;;;;;9.75;9.00;;;;;9.19;80.14;100136.41;5032591;28;10499;-67
2022/11/18 10:45:26;;;;;;;;;7.75;7.75;;;;;9.22;80.04;100152.97;5039546;28;10284;-67
2022/11/18 10:47:56;;;;;;;;;5.75;4.75;;;;;9.19;80.46;100147.16;5043140;28;10362;-67
2022/11/18 10:50:40;;;;;;;;;8.00;6.00;;;;;9.25;79.97;100144.50;5028304;28;10175;-67
2022/11/18 10:53:28;;;;;;;;;6.00;6.00;;;;;9.32;80.42;100142.69;5031942;28;10159;-66
2022/11/18 10:56:15;;;;;;;;;7.25;5.50;;;;;9.28;79.88;100148.66;5020897;28;10258;-67
2022/11/18 10:58:45;;;;;;;;;9.00;8.00;;;;;9.30;80.08;100144.72;5030809;28;10312;-67
2022/11/18 11:01:23;;;;;;;;;8.75;8.50;;;;;9.27;80.11;100144.28;5027440;28;10229;-67
2022/11/18 11:04:12;;;;;;;;;7.75;7.75;;;;;9.24;80.24;100139.34;5027780;28;10185;-67
2022/11/18 11:06:38;;;;;;;;;8.50;7.25;;;;;9.28;80.92;100141.44;5029337;28;10301;-66
2022/11/18 11:09:08;;;;;;;;;11.00;8.00;;;;;9.33;79.82;100141.63;5034731;28;10298;-66
2022/11/18 11:11:55;;;;;;;;;7.00;5.25;;;;;9.38;80.14;100151.75;5026876;28;10237;-66
2022/11/18 11:14:34;;;;;;;;;8.25;6.25;;;;;9.35;80.74;100152.16;5030947;28;10155;-66
2022/11/18 11:17:25;;;;;;;;;9.50;8.75;;;;;9.43;80.50;100151.97;5030154;28;10149;-67
2022/11/18 11:20:14;;;;;;;;;11.25;7.00;;;;;9.47;80.30;100152.41;5028468;28;10145;-67
2022/11/18 11:22:41;;;;;;;;;9.00;9.00;;;;;9.47;80.23;100155.09;5030230;28;10282;-67
2022/11/18 11:25:41;;;;;;;;;9.75;9.00;;;;;9.44;79.81;100156.34;5043997;28;10239;-67
2022/11/18 11:28:33;;;;;;;;;8.00;8.00;;;;;9.40;80.20;100163.97;5011631;28;10214;-69
2022/11/18 11:31:17;;;;;;;;;10.50;5.25;;;;;9.66;83.00;100165.88;5030149;28;11025;-67
2022/11/18 11:33:59;;;;;;;;;7.50;6.75;;;;;9.77;81.53;100161.75;5032571;28;10128;-67
2022/11/18 11:36:52;;;;;;;;;7.00;7.00;;;;;9.70;80.45;100160.91;5031713;28;10067;-67
2022/11/18 11:39:50;;;;;;;;;7.50;6.00;;;;;9.67;80.24;100177.44;5033330;28;10707;-66
2022/11/18 11:42:31;;;;;;;;;11.25;8.75;;;;;9.56;79.96;100173.50;5028902;28;10158;-68
2022/11/18 11:45:18;;;;;;;;;10.50;9.00;;;;;9.53;80.38;100175.78;5025048;28;10021;-67
2022/11/18 11:48:25;;;;;;;;;8.50;8.00;;;;;9.40;80.86;100174.72;5028582;28;10071;-67
2022/11/18 11:51:02;;;;;;;;;5.75;3.75;;;;;9.46;80.89;100173.06;5023728;28;10149;-66
2022/11/18 11:53:52;;;;;;;;;7.00;7.00;;;;;9.52;80.51;100180.31;5030367;28;10157;-66
2022/11/18 11:56:37;;;;;;;;;13.75;11.75;;;;;9.48;80.64;100191.66;5033871;28;10242;-66
2022/11/18 11:59:31;;;;;;;;;10.75;10.75;;;;;9.45;81.38;100186.72;5018837;28;10181;-67
2022/11/18 12:02:35;;;;;;;;;8.75;7.50;;;;;9.60;80.98;100190.03;5016963;28;10206;-67
2022/11/18 12:05:29;;;;;;;;;9.00;7.00;;;;;9.67;80.32;100188.19;5025196;28;10162;-66
2022/11/18 12:08:00;;;;;;;;;10.50;9.00;;;;;9.63;80.67;100182.38;5023863;28;10221;-66
2022/11/18 12:10:45;;;;;;;;;10.75;9.75;;;;;9.65;80.03;100193.78;5030432;28;10273;-66
2022/11/18 12:13:20;;;;;;;;;9.75;9.75;;;;;9.61;80.08;100197.09;5020236;28;10288;-67